Time;durP1;ratioP1;P1;durP2;ratioP2;P2;SDS_P1;SDS_P2;PMS_P1;PMS_P2;Temp;Humidity;BMP_temperature;BMP_pressure;BME280_temperature;BME280_humidity;BME280_pressure;Samples;Min_cycle;Max_cycle;Signal;HPM_P1;HPM_P2
2022/11/25 00:01:08;;;;;;;21.20;4.63;;;;;;;;;;5007380;28;98305;-69
2022/11/25 00:03:34;;;;;;;18.17;4.20;;;;;;;;;;5007567;28;99706;-69
2022/11/25 00:06:27;;;;;;;20.27;4.63;;;;;;;;;;5007075;28;99134;-69
2022/11/25 00:08:55;;;;;;;23.05;4.78;;;;;;;;;;5004082;28;98967;-69
2022/11/25 00:11:21;;;;;;;24.98;4.55;;;;;;;;;;4988177;28;98786;-70
2022/11/25 00:13:48;;;;;;;20.85;5.47;;;;;;;;;;4987935;28;98285;-69
2022/11/25 00:16:16;;;;;;;20.15;4.57;;;;;;;;;;4987235;28;99701;-69
2022/11/25 00:18:43;;;;;;;26.88;5.38;;;;;;;;;;4987584;28;99918;-69
2022/11/25 00:21:11;;;;;;;21.15;4.10;;;;;;;;;;4987987;28;98243;-70
2022/11/25 00:23:37;;;;;;;29.92;5.65;;;;;;;;;;4987391;28;99599;-70
2022/11/25 00:26:05;;;;;;;21.20;4.10;;;;;;;;;;4988667;28;99603;-70
2022/11/25 00:28:31;;;;;;;28.73;4.93;;;;;;;;;;4989346;28;98308;-70
2022/11/25 00:31:24;;;;;;;23.30;4.90;;;;;;;;;;4989967;28;98578;-70
2022/11/25 00:33:50;;;;;;;25.67;5.07;;;;;;;;;;4985169;28;98215;-70
2022/11/25 00:36:21;;;;;;;31.63;4.75;;;;;;;;;;4969832;28;101278;-70
2022/11/25 00:38:55;;;;;;;21.92;4.43;;;;;;;;;;4987009;28;98743;-69
2022/11/25 00:46:56;;;;;;;26.25;5.28;;;;;;;;;;4970959;28;99226;-70
2022/11/25 00:49:22;;;;;;;29.30;4.78;;;;;;;;;;4988121;28;98235;-69
2022/11/25 00:51:49;;;;;;;26.58;5.85;;;;;;;;;;4987367;28;99256;-70
2022/11/25 00:54:15;;;;;;;27.20;5.28;;;;;;;;;;4972842;28;100352;-69
2022/11/25 00:56:42;;;;;;;25.33;5.13;;;;;;;;;;4986511;28;99465;-69
2022/11/25 00:59:08;;;;;;;22.42;4.88;;;;;;;;;;4968753;28;101586;-69
2022/11/25 01:01:37;;;;;;;27.00;4.90;;;;;;;;;;4987563;28;98265;-69
2022/11/25 01:04:04;;;;;;;25.17;6.72;;;;;;;;;;4988121;28;98337;-69
2022/11/25 01:06:31;;;;;;;31.77;5.15;;;;;;;;;;4986445;28;98779;-69
2022/11/25 01:08:57;;;;;;;27.85;6.00;;;;;;;;;;4987433;28;98315;-69
2022/11/25 01:11:24;;;;;;;33.17;5.88;;;;;;;;;;4969080;28;99366;-70
2022/11/25 01:13:53;;;;;;;24.52;5.30;;;;;;;;;;4991731;28;99241;-69
2022/11/25 01:16:26;;;;;;;25.33;5.22;;;;;;;;;;4998360;28;98519;-69
2022/11/25 01:18:53;;;;;;;27.42;5.28;;;;;;;;;;5002705;28;100559;-69
2022/11/25 01:21:21;;;;;;;23.92;5.63;;;;;;;;;;4997037;28;98249;-69
2022/11/25 01:23:48;;;;;;;34.85;5.57;;;;;;;;;;5005640;28;101069;-69
2022/11/25 01:26:15;;;;;;;29.38;5.88;;;;;;;;;;5006429;28;98916;-69
2022/11/25 01:28:43;;;;;;;25.50;5.57;;;;;;;;;;5005421;28;98403;-69
2022/11/25 01:31:13;;;;;;;28.20;6.88;;;;;;;;;;5005878;28;98625;-69
2022/11/25 01:33:39;;;;;;;35.67;7.18;;;;;;;;;;4995582;28;101859;-69
2022/11/25 01:36:10;;;;;;;34.00;6.85;;;;;;;;;;5003952;28;98718;-69
2022/11/25 01:38:36;;;;;;;28.10;6.60;;;;;;;;;;4972183;28;98847;-69
2022/11/25 01:41:04;;;;;;;29.73;5.82;;;;;;;;;;5003881;28;98253;-69
2022/11/25 01:43:31;;;;;;;29.38;5.53;;;;;;;;;;5006771;28;99341;-69
2022/11/25 01:46:00;;;;;;;41.58;6.45;;;;;;;;;;5006206;28;98968;-69
2022/11/25 01:48:28;;;;;;;40.13;6.35;;;;;;;;;;5005754;28;98353;-69
2022/11/25 01:50:54;;;;;;;29.45;6.38;;;;;;;;;;5006875;28;99683;-69
2022/11/25 01:53:22;;;;;;;32.00;6.25;;;;;;;;;;4987746;28;101732;-69
2022/11/25 01:55:55;;;;;;;22.92;5.20;;;;;;;;;;5006185;28;98536;-69
2022/11/25 01:58:25;;;;;;;39.50;6.35;;;;;;;;;;4988264;28;98629;-69
2022/11/25 02:00:52;;;;;;;28.83;6.30;;;;;;;;;;4991846;28;101671;-69
2022/11/25 02:03:21;;;;;;;30.88;6.45;;;;;;;;;;5006359;28;98436;-69
2022/11/25 02:05:51;;;;;;;35.72;6.63;;;;;;;;;;5006665;28;99963;-69
2022/11/25 02:08:18;;;;;;;30.33;6.28;;;;;;;;;;4988137;28;98346;-69
2022/11/25 02:10:45;;;;;;;29.35;6.30;;;;;;;;;;4978352;28;101155;-69
2022/11/25 02:13:11;;;;;;;26.50;5.80;;;;;;;;;;4986549;28;99180;-69
2022/11/25 02:15:38;;;;;;;30.23;5.95;;;;;;;;;;4986106;28;99083;-69
2022/11/25 02:18:05;;;;;;;40.83;6.45;;;;;;;;;;4986978;28;98295;-69
2022/11/25 02:20:31;;;;;;;24.92;6.45;;;;;;;;;;4989369;28;100144;-69
2022/11/25 02:23:13;;;;;;;26.98;6.03;;;;;;;;;;4969186;28;100715;-69
2022/11/25 02:25:42;;;;;;;23.33;5.35;;;;;;;;;;4971932;28;98922;-69
2022/11/25 02:28:16;;;;;;;32.25;6.22;;;;;;;;;;5005239;28;98290;-69
2022/11/25 02:30:43;;;;;;;36.92;6.72;;;;;;;;;;5003916;28;98892;-69
2022/11/25 02:33:10;;;;;;;34.92;6.10;;;;;;;;;;4971871;28;100858;-69
2022/11/25 02:35:38;;;;;;;38.03;6.15;;;;;;;;;;4970990;28;98375;-69
2022/11/25 02:38:09;;;;;;;28.80;6.57;;;;;;;;;;4971172;28;100614;-69
2022/11/25 02:40:39;;;;;;;38.88;6.82;;;;;;;;;;4971386;28;101103;-69
2022/11/25 02:43:07;;;;;;;26.60;6.00;;;;;;;;;;4975081;28;98689;-69
2022/11/25 02:45:55;;;;;;;31.55;6.47;;;;;;;;;;4989076;28;98820;-69
2022/11/25 02:48:22;;;;;;;25.77;5.35;;;;;;;;;;4989013;28;98973;-69
2022/11/25 02:51:10;;;;;;;30.90;5.93;;;;;;;;;;4988803;28;99535;-69
2022/11/25 02:53:36;;;;;;;27.52;6.57;;;;;;;;;;4989217;28;99134;-69
2022/11/25 02:56:03;;;;;;;26.42;5.60;;;;;;;;;;4971888;28;98394;-69
2022/11/25 02:58:29;;;;;;;32.67;7.78;;;;;;;;;;4970594;28;101131;-69
2022/11/25 03:00:56;;;;;;;29.23;5.68;;;;;;;;;;4971112;28;100125;-69
2022/11/25 03:03:22;;;;;;;35.78;6.03;;;;;;;;;;4989655;28;98187;-70
2022/11/25 03:05:48;;;;;;;28.73;6.55;;;;;;;;;;4973803;28;101018;-69
2022/11/25 03:08:15;;;;;;;31.73;6.40;;;;;;;;;;4989611;28;98233;-69
2022/11/25 03:10:42;;;;;;;44.03;6.63;;;;;;;;;;5007570;28;101516;-69
2022/11/25 03:13:09;;;;;;;25.90;6.28;;;;;;;;;;4990041;28;101850;-69
2022/11/25 03:15:38;;;;;;;32.17;6.68;;;;;;;;;;5009380;28;99021;-69
2022/11/25 03:18:05;;;;;;;27.88;5.93;;;;;;;;;;5006177;28;98324;-69
2022/11/25 03:20:34;;;;;;;22.60;7.47;;;;;;;;;;4980542;28;100832;-69
2022/11/25 03:23:02;;;;;;;35.42;6.53;;;;;;;;;;4971277;28;98389;-69
2022/11/25 03:25:28;;;;;;;38.03;7.50;;;;;;;;;;4988074;28;99306;-69
2022/11/25 03:27:55;;;;;;;24.85;5.93;;;;;;;;;;4991889;28;98809;-69
2022/11/25 03:30:22;;;;;;;28.33;7.22;;;;;;;;;;4987803;28;100975;-69
2022/11/25 03:32:52;;;;;;;29.83;7.53;;;;;;;;;;4970182;28;101507;-69
2022/11/25 03:35:18;;;;;;;39.38;6.80;;;;;;;;;;4970630;28;98438;-69
2022/11/25 03:37:45;;;;;;;26.63;6.03;;;;;;;;;;5003567;28;100530;-69
2022/11/25 03:40:12;;;;;;;32.75;6.32;;;;;;;;;;5002402;28;101056;-68
2022/11/25 03:42:38;;;;;;;27.85;7.03;;;;;;;;;;4970915;28;98942;-68
2022/11/25 03:45:07;;;;;;;35.10;6.75;;;;;;;;;;4970819;28;100394;-69
2022/11/25 03:47:33;;;;;;;29.30;6.75;;;;;;;;;;4987566;28;99509;-69
2022/11/25 03:50:00;;;;;;;28.27;6.22;;;;;;;;;;5006568;28;98298;-69
2022/11/25 03:52:27;;;;;;;26.10;5.65;;;;;;;;;;5003410;28;101807;-69
2022/11/25 03:54:54;;;;;;;36.60;7.22;;;;;;;;;;5003173;28;98380;-69
2022/11/25 03:57:24;;;;;;;30.20;7.07;;;;;;;;;;5003623;28;101275;-68
2022/11/25 03:59:51;;;;;;;24.25;6.47;;;;;;;;;;4970532;28;100194;-68
2022/11/25 04:02:17;;;;;;;27.77;6.20;;;;;;;;;;4988108;28;98267;-68
2022/11/25 04:04:43;;;;;;;27.42;6.57;;;;;;;;;;4970270;28;100869;-69
2022/11/25 04:07:10;;;;;;;26.50;6.68;;;;;;;;;;4987865;28;99791;-68
2022/11/25 04:09:37;;;;;;;20.63;5.35;;;;;;;;;;4976904;28;98873;-68
2022/11/25 04:14:54;;;;;;;23.38;5.63;;;;;;;;;;4988920;28;98793;-70
2022/11/25 04:17:21;;;;;;;29.95;6.25;;;;;;;;;;5008529;28;98514;-69
2022/11/25 04:19:49;;;;;;;26.80;6.15;;;;;;;;;;4989425;28;100871;-69
2022/11/25 04:22:16;;;;;;;20.15;5.63;;;;;;;;;;4988914;28;98626;-69
2022/11/25 04:24:44;;;;;;;24.55;5.75;;;;;;;;;;4990063;28;101275;-68
2022/11/25 04:27:15;;;;;;;24.85;5.25;;;;;;;;;;4989171;28;101406;-68
2022/11/25 04:29:41;;;;;;;21.55;5.25;;;;;;;;;;4988701;28;98319;-68
2022/11/25 04:32:09;;;;;;;21.20;4.80;;;;;;;;;;4993403;28;98549;-69
2022/11/25 04:34:37;;;;;;;23.15;5.20;;;;;;;;;;4989775;28;98066;-69
2022/11/25 04:37:03;;;;;;;15.70;4.43;;;;;;;;;;4989310;28;101064;-69
2022/11/25 04:39:30;;;;;;;18.80;5.25;;;;;;;;;;4988688;28;101269;-69
2022/11/25 04:44:45;;;;;;;17.25;4.45;;;;;;;;;;4988019;28;101100;-69
2022/11/25 04:47:31;;;;;;;20.25;4.45;;;;;;;;;;4988901;28;101313;-69
2022/11/25 04:49:58;;;;;;;13.55;3.63;;;;;;;;;;5008123;28;98693;-69
2022/11/25 04:52:25;;;;;;;9.50;3.83;;;;;;;;;;4988690;28;100681;-69
2022/11/25 04:54:52;;;;;;;15.70;4.47;;;;;;;;;;4992577;28;100096;-69
2022/11/25 04:57:19;;;;;;;19.90;3.83;;;;;;;;;;5007306;28;98517;-69
2022/11/25 04:59:46;;;;;;;18.55;4.20;;;;;;;;;;4988209;28;100858;-69
2022/11/25 05:02:17;;;;;;;14.60;4.13;;;;;;;;;;4969962;28;99603;-68
2022/11/25 05:05:06;;;;;;;9.80;3.13;;;;;;;;;;4968394;28;100506;-68
2022/11/25 05:07:33;;;;;;;7.60;2.92;;;;;;;;;;4969161;28;101380;-68
2022/11/25 05:10:00;;;;;;;11.25;2.90;;;;;;;;;;4980330;28;98293;-69
2022/11/25 05:12:40;;;;;;;14.90;2.83;;;;;;;;;;5006997;28;98559;-69
2022/11/25 05:15:10;;;;;;;9.57;3.00;;;;;;;;;;4989062;28;99016;-69
2022/11/25 05:17:38;;;;;;;11.80;3.00;;;;;;;;;;4984122;28;99445;-69
2022/11/25 05:20:05;;;;;;;9.05;2.58;;;;;;;;;;4969638;28;101451;-69
2022/11/25 05:22:33;;;;;;;6.70;2.58;;;;;;;;;;4986672;28;98350;-69
2022/11/25 05:25:01;;;;;;;9.77;3.10;;;;;;;;;;4987350;28;99481;-68
2022/11/25 05:27:28;;;;;;;8.73;2.60;;;;;;;;;;4984753;28;98978;-69
2022/11/25 05:29:59;;;;;;;8.60;3.08;;;;;;;;;;4968529;28;98642;-69
2022/11/25 05:32:25;;;;;;;13.32;3.22;;;;;;;;;;4985025;28;100908;-69
2022/11/25 05:34:55;;;;;;;9.88;2.50;;;;;;;;;;4995677;28;101516;-69
2022/11/25 05:37:22;;;;;;;7.35;2.30;;;;;;;;;;4989206;28;98332;-69
2022/11/25 05:39:57;;;;;;;8.50;2.70;;;;;;;;;;4991171;28;99423;-68
2022/11/25 05:42:43;;;;;;;11.27;2.38;;;;;;;;;;4988947;28;98514;-68
2022/11/25 05:45:10;;;;;;;10.45;3.85;;;;;;;;;;4988625;28;100946;-69
2022/11/25 05:47:38;;;;;;;5.65;2.20;;;;;;;;;;4987729;28;101707;-68
2022/11/25 05:50:06;;;;;;;6.68;2.30;;;;;;;;;;4989114;28;98404;-69
2022/11/25 05:52:32;;;;;;;6.63;2.50;;;;;;;;;;4987713;28;100655;-69
2022/11/25 05:55:00;;;;;;;7.55;2.78;;;;;;;;;;4987282;28;101808;-69
2022/11/25 05:57:27;;;;;;;9.00;2.28;;;;;;;;;;4988748;28;98365;-69
2022/11/25 05:59:59;;;;;;;4.25;2.70;;;;;;;;;;4992177;28;100709;-68
2022/11/25 06:02:40;;;;;;;7.63;2.80;;;;;;;;;;5010555;28;98597;-68
2022/11/25 06:05:08;;;;;;;8.43;2.85;;;;;;;;;;4992532;28;99039;-68
2022/11/25 06:07:34;;;;;;;9.48;2.70;;;;;;;;;;4991353;28;101794;-69
2022/11/25 06:10:01;;;;;;;7.55;2.90;;;;;;;;;;5009652;28;98284;-69
2022/11/25 06:12:31;;;;;;;14.15;3.38;;;;;;;;;;5010064;28;99318;-69
2022/11/25 06:14:57;;;;;;;10.07;2.80;;;;;;;;;;4991317;28;101824;-69
2022/11/25 06:17:23;;;;;;;10.40;3.47;;;;;;;;;;5010020;28;99007;-69
2022/11/25 06:20:10;;;;;;;6.75;3.25;;;;;;;;;;5008381;28;99275;-69
2022/11/25 06:22:36;;;;;;;5.55;3.10;;;;;;;;;;4990908;28;101944;-69
2022/11/25 06:25:03;;;;;;;5.15;3.10;;;;;;;;;;4992203;28;98643;-69
2022/11/25 06:27:32;;;;;;;7.05;3.30;;;;;;;;;;4970926;28;101331;-69
2022/11/25 06:30:18;;;;;;;11.00;3.42;;;;;;;;;;4971419;28;98218;-69
2022/11/25 06:32:58;;;;;;;9.23;3.60;;;;;;;;;;4972041;28;98635;-69
2022/11/25 06:35:24;;;;;;;7.28;3.22;;;;;;;;;;4971322;28;99128;-69
2022/11/25 06:37:57;;;;;;;10.77;4.00;;;;;;;;;;4971611;28;98496;-69
2022/11/25 06:40:23;;;;;;;6.95;3.53;;;;;;;;;;4989310;28;98625;-68
2022/11/25 06:42:50;;;;;;;11.07;4.10;;;;;;;;;;4989595;28;100204;-68
2022/11/25 06:45:16;;;;;;;12.85;4.53;;;;;;;;;;4992077;28;98788;-69
2022/11/25 06:47:42;;;;;;;14.80;4.55;;;;;;;;;;4988622;28;99612;-68
2022/11/25 06:50:09;;;;;;;12.80;4.07;;;;;;;;;;4988629;28;98847;-68
2022/11/25 06:52:35;;;;;;;19.98;4.38;;;;;;;;;;4989532;28;99750;-69
2022/11/25 06:55:02;;;;;;;12.10;4.72;;;;;;;;;;4989390;28;100517;-69
2022/11/25 06:57:28;;;;;;;8.30;4.05;;;;;;;;;;4988075;28;98490;-69
2022/11/25 06:59:54;;;;;;;13.20;4.45;;;;;;;;;;4990113;28;99462;-70
2022/11/25 07:02:21;;;;;;;13.52;4.88;;;;;;;;;;5002556;28;99189;-69
2022/11/25 07:04:47;;;;;;;22.50;5.60;;;;;;;;;;5004517;28;98517;-69
2022/11/25 07:07:14;;;;;;;10.90;4.78;;;;;;;;;;5011292;28;98792;-69
2022/11/25 07:09:40;;;;;;;7.72;4.63;;;;;;;;;;5007807;28;98240;-69
2022/11/25 07:12:06;;;;;;;12.90;5.03;;;;;;;;;;5008650;28;99313;-69
2022/11/25 07:14:33;;;;;;;21.60;6.65;;;;;;;;;;5009024;28;100086;-69
2022/11/25 07:17:00;;;;;;;10.43;5.25;;;;;;;;;;5006411;28;98240;-69
2022/11/25 07:19:26;;;;;;;15.20;5.45;;;;;;;;;;5008362;28;99465;-69
2022/11/25 07:21:52;;;;;;;20.48;5.20;;;;;;;;;;5002859;28;100358;-69
2022/11/25 07:24:19;;;;;;;15.13;5.22;;;;;;;;;;5006094;28;99484;-69
2022/11/25 07:26:45;;;;;;;21.02;5.95;;;;;;;;;;4999738;28;99760;-69
2022/11/25 07:29:13;;;;;;;10.93;5.15;;;;;;;;;;5012236;28;100034;-69
2022/11/25 07:31:59;;;;;;;14.93;6.25;;;;;;;;;;5006013;28;98580;-68
2022/11/25 07:34:32;;;;;;;;;;;;;;;;;;5003042;28;100259;-68
2022/11/25 07:36:58;;;;;;;12.48;5.10;;;;;;;;;;5007992;28;125374;-68
2022/11/25 07:39:25;;;;;;;11.60;4.78;;;;;;;;;;5008228;28;99351;-68
2022/11/25 07:41:53;;;;;;;11.05;6.53;;;;;;;;;;5008619;28;99959;-69
2022/11/25 07:44:20;;;;;;;18.25;6.60;;;;;;;;;;5008649;28;98320;-69
2022/11/25 07:46:56;;;;;;;11.50;6.22;;;;;;;;;;4989503;28;101026;-69
2022/11/25 07:49:25;;;;;;;12.70;6.60;;;;;;;;;;5006105;28;100491;-69
2022/11/25 07:51:53;;;;;;;15.15;6.50;;;;;;;;;;5006148;28;99418;-69
2022/11/25 07:54:20;;;;;;;14.27;5.78;;;;;;;;;;5006662;28;100363;-69
2022/11/25 07:56:48;;;;;;;15.85;7.25;;;;;;;;;;5001906;28;98766;-69
2022/11/25 07:59:16;;;;;;;14.00;6.53;;;;;;;;;;5004965;28;98580;-69
2022/11/25 08:01:43;;;;;;;16.67;6.07;;;;;;;;;;5006160;28;100017;-69
2022/11/25 08:04:10;;;;;;;19.40;6.07;;;;;;;;;;5006322;28;99348;-70
2022/11/25 08:06:44;;;;;;;16.27;6.47;;;;;;;;;;5003811;28;99348;-69
2022/11/25 08:09:13;;;;;;;12.65;5.93;;;;;;;;;;5007094;28;98193;-69
2022/11/25 08:11:40;;;;;;;25.50;5.97;;;;;;;;;;5008245;28;98289;-69
2022/11/25 08:14:07;;;;;;;16.13;6.68;;;;;;;;;;5000225;28;98687;-69
2022/11/25 08:16:33;;;;;;;18.92;6.85;;;;;;;;;;5002942;28;99838;-69
2022/11/25 08:19:01;;;;;;;13.18;6.13;;;;;;;;;;5003786;28;99492;-69
2022/11/25 08:21:28;;;;;;;20.00;7.45;;;;;;;;;;5006044;28;100623;-69
2022/11/25 08:23:55;;;;;;;26.27;7.55;;;;;;;;;;5002389;28;98942;-69
2022/11/25 08:26:24;;;;;;;18.88;7.28;;;;;;;;;;5004987;28;99580;-69
2022/11/25 08:28:51;;;;;;;14.10;6.15;;;;;;;;;;5002571;28;100045;-69
2022/11/25 08:31:19;;;;;;;15.23;6.00;;;;;;;;;;4999264;28;98319;-69
2022/11/25 08:33:46;;;;;;;16.05;6.22;;;;;;;;;;5006565;28;98661;-69
2022/11/25 08:36:13;;;;;;;15.20;6.35;;;;;;;;;;5006842;28;99163;-69
2022/11/25 08:38:40;;;;;;;12.35;6.22;;;;;;;;;;5004884;28;98914;-69
2022/11/25 08:41:17;;;;;;;10.90;6.22;;;;;;;;;;4998276;28;99187;-69
2022/11/25 08:43:43;;;;;;;13.90;5.93;;;;;;;;;;5004800;28;99343;-69
2022/11/25 08:46:11;;;;;;;15.55;6.57;;;;;;;;;;5002637;28;98849;-69
2022/11/25 08:48:38;;;;;;;14.75;6.70;;;;;;;;;;4989594;28;99241;-69
2022/11/25 08:51:09;;;;;;;15.70;5.50;;;;;;;;;;5002598;28;99106;-69
2022/11/25 08:53:36;;;;;;;11.65;5.22;;;;;;;;;;5005074;28;99524;-69
2022/11/25 08:56:03;;;;;;;11.60;5.45;;;;;;;;;;5008283;28;99951;-69
2022/11/25 08:58:29;;;;;;;16.23;5.32;;;;;;;;;;4997870;28;99361;-69
2022/11/25 09:00:55;;;;;;;10.23;4.97;;;;;;;;;;5005241;28;99983;-69
2022/11/25 09:03:22;;;;;;;12.82;5.18;;;;;;;;;;5003844;28;100085;-69
2022/11/25 09:05:49;;;;;;;7.75;5.78;;;;;;;;;;5003177;28;99641;-69
2022/11/25 09:08:15;;;;;;;8.85;4.90;;;;;;;;;;5004190;28;99917;-69
2022/11/25 09:10:43;;;;;;;8.82;5.05;;;;;;;;;;5004539;28;99204;-69
2022/11/25 09:13:10;;;;;;;12.90;5.20;;;;;;;;;;4989835;28;99834;-69
2022/11/25 09:15:37;;;;;;;8.98;4.75;;;;;;;;;;4997866;28;99110;-69
2022/11/25 09:18:05;;;;;;;14.73;5.30;;;;;;;;;;5001437;28;101460;-69
2022/11/25 09:20:31;;;;;;;10.52;4.97;;;;;;;;;;4985651;28;99123;-69
2022/11/25 09:22:59;;;;;;;11.73;4.63;;;;;;;;;;4986702;28;98445;-69
2022/11/25 09:25:26;;;;;;;12.35;4.80;;;;;;;;;;5000155;28;98927;-69
2022/11/25 09:27:52;;;;;;;19.50;5.57;;;;;;;;;;5003440;28;99951;-69
2022/11/25 09:30:19;;;;;;;13.02;4.10;;;;;;;;;;5006353;28;98306;-69
2022/11/25 09:32:47;;;;;;;32.80;5.22;;;;;;;;;;5005354;28;99554;-69
2022/11/25 09:35:14;;;;;;;11.85;5.10;;;;;;;;;;4990554;28;99957;-69
2022/11/25 09:37:40;;;;;;;10.13;4.38;;;;;;;;;;4990504;28;98269;-69
2022/11/25 09:40:07;;;;;;;6.57;3.75;;;;;;;;;;5006585;28;98754;-69
2022/11/25 09:48:46;;;;;;;18.75;6.50;;;;;;;;;;4999842;28;99413;-70
2022/11/25 09:51:31;;;;;;;9.10;4.18;;;;;;;;;;5002145;28;99409;-68
2022/11/25 09:54:12;;;;;;;8.52;4.25;;;;;;;;;;5002574;28;99989;-69
2022/11/25 09:56:44;;;;;;;7.22;4.53;;;;;;;;;;5003808;28;99232;-68
2022/11/25 09:59:17;;;;;;;6.95;3.95;;;;;;;;;;5000939;28;98316;-69
2022/11/25 10:01:49;;;;;;;9.57;4.50;;;;;;;;;;5002082;28;99089;-69
2022/11/25 10:04:26;;;;;;;10.70;4.13;;;;;;;;;;5000077;28;99960;-70
2022/11/25 10:06:59;;;;;;;10.40;4.57;;;;;;;;;;4994848;28;99893;-69
2022/11/25 10:09:31;;;;;;;12.48;4.43;;;;;;;;;;4995467;28;100155;-70
2022/11/25 10:12:02;;;;;;;16.15;4.45;;;;;;;;;;5005988;28;98187;-70
2022/11/25 10:14:33;;;;;;;12.50;4.40;;;;;;;;;;5003199;28;100092;-70
2022/11/25 10:17:05;;;;;;;8.30;4.50;;;;;;;;;;4994020;28;100723;-70
2022/11/25 10:19:34;;;;;;;6.65;3.83;;;;;;;;;;4995967;28;98274;-69
2022/11/25 10:22:21;;;;;;;12.25;4.60;;;;;;;;;;4997601;28;99758;-69
2022/11/25 10:24:48;;;;;;;15.30;4.55;;;;;;;;;;4981550;28;100184;-69
2022/11/25 10:27:23;;;;;;;10.38;4.03;;;;;;;;;;5004538;28;99284;-69
2022/11/25 10:29:55;;;;;;;11.95;5.00;;;;;;;;;;4998886;28;99974;-70
2022/11/25 10:32:24;;;;;;;13.90;5.47;;;;;;;;;;5003794;28;98814;-69
2022/11/25 10:35:01;;;;;;;7.78;3.95;;;;;;;;;;5003385;28;98586;-69
2022/11/25 10:37:29;;;;;;;9.77;4.57;;;;;;;;;;5003401;28;99921;-69
2022/11/25 10:39:55;;;;;;;9.57;4.35;;;;;;;;;;5004856;28;98285;-69
2022/11/25 10:42:24;;;;;;;9.73;4.35;;;;;;;;;;5002885;28;99500;-69
2022/11/25 10:44:50;;;;;;;11.70;4.25;;;;;;;;;;5003548;28;100008;-70
2022/11/25 10:47:22;;;;;;;17.15;5.20;;;;;;;;;;4998204;28;99545;-70
2022/11/25 10:49:58;;;;;;;9.93;3.83;;;;;;;;;;4979269;28;99820;-70
2022/11/25 10:52:26;;;;;;;12.68;4.57;;;;;;;;;;5004613;28;98662;-70
2022/11/25 10:54:57;;;;;;;7.45;3.80;;;;;;;;;;5007817;28;98721;-70
2022/11/25 10:57:26;;;;;;;21.92;4.72;;;;;;;;;;5007501;28;99112;-70
2022/11/25 10:59:56;;;;;;;13.32;4.93;;;;;;;;;;5008614;28;98309;-71
2022/11/25 11:02:27;;;;;;;12.68;4.53;;;;;;;;;;5009096;28;101671;-70
2022/11/25 11:05:01;;;;;;;12.32;4.22;;;;;;;;;;5006310;28;98833;-70
2022/11/25 11:07:32;;;;;;;15.15;4.60;;;;;;;;;;5006112;28;100122;-71
2022/11/25 11:10:17;;;;;;;13.65;4.47;;;;;;;;;;5009034;28;99364;-70
2022/11/25 11:13:03;;;;;;;14.60;4.45;;;;;;;;;;5007227;28;98502;-69
2022/11/25 11:15:32;;;;;;;11.35;3.83;;;;;;;;;;5006334;28;99355;-70
2022/11/25 11:17:59;;;;;;;13.38;4.80;;;;;;;;;;5008114;28;100069;-69
2022/11/25 11:20:29;;;;;;;19.63;5.32;;;;;;;;;;5003794;28;98488;-69
2022/11/25 11:23:16;;;;;;;17.15;5.22;;;;;;;;;;5005710;28;98711;-70
2022/11/25 11:25:52;;;;;;;15.73;4.13;;;;;;;;;;5005378;28;99128;-69
2022/11/25 11:28:38;;;;;;;12.70;4.65;;;;;;;;;;5008287;28;98603;-69
2022/11/25 11:31:18;;;;;;;13.95;4.28;;;;;;;;;;5005864;28;98717;-70
2022/11/25 11:33:58;;;;;;;17.95;4.93;;;;;;;;;;5009886;28;100203;-69
2022/11/25 11:36:36;;;;;;;20.65;4.30;;;;;;;;;;5006801;28;100387;-69
2022/11/25 11:39:16;;;;;;;10.85;3.88;;;;;;;;;;4996870;28;99911;-69
2022/11/25 11:41:55;;;;;;;11.80;4.22;;;;;;;;;;5000499;28;99801;-69
2022/11/25 11:44:44;;;;;;;12.38;3.38;;;;;;;;;;5004678;28;99597;-69
2022/11/25 11:47:19;;;;;;;16.70;4.90;;;;;;;;;;5005511;28;98931;-69
2022/11/25 11:49:46;;;;;;;14.82;4.65;;;;;;;;;;5007529;28;98365;-69
2022/11/25 11:52:23;;;;;;;15.52;3.92;;;;;;;;;;5005021;28;98489;-69
2022/11/25 11:54:56;;;;;;;20.25;4.80;;;;;;;;;;5000942;28;99152;-69
2022/11/25 11:57:50;;;;;;;26.65;4.60;;;;;;;;;;5002615;28;98405;-69
2022/11/25 12:00:17;;;;;;;15.63;4.32;;;;;;;;;;5001536;28;100002;-69
2022/11/25 12:03:01;;;;;;;20.90;6.35;;;;;;;;;;4988048;28;98294;-70
2022/11/25 12:05:29;;;;;;;15.52;4.10;;;;;;;;;;4992862;28;99529;-70
2022/11/25 12:08:17;;;;;;;15.20;4.10;;;;;;;;;;5002834;28;98793;-70
2022/11/25 12:10:43;;;;;;;12.98;4.60;;;;;;;;;;4990496;28;98291;-70
2022/11/25 12:13:25;;;;;;;17.90;4.80;;;;;;;;;;5002636;28;99587;-71
2022/11/25 12:15:57;;;;;;;15.98;4.68;;;;;;;;;;5007051;28;100159;-71
2022/11/25 12:18:39;;;;;;;18.50;4.70;;;;;;;;;;5008148;28;98585;-70
2022/11/25 12:21:10;;;;;;;13.68;4.13;;;;;;;;;;5008460;28;99386;-69
2022/11/25 12:23:55;;;;;;;15.65;3.78;;;;;;;;;;5008862;28;98090;-71
2022/11/25 12:26:26;;;;;;;14.05;4.15;;;;;;;;;;5007314;28;98427;-72
2022/11/25 12:28:58;;;;;;;16.02;4.20;;;;;;;;;;5003806;28;100726;-70
2022/11/25 12:31:31;;;;;;;19.52;4.07;;;;;;;;;;5008550;28;98264;-70
2022/11/25 12:33:58;;;;;;;17.92;4.28;;;;;;;;;;4988016;28;99331;-70
2022/11/25 12:36:38;;;;;;;15.40;3.70;;;;;;;;;;4995783;28;99829;-71
2022/11/25 12:39:14;;;;;;;13.32;4.20;;;;;;;;;;5006986;28;98328;-70
2022/11/25 12:41:42;;;;;;;22.42;4.43;;;;;;;;;;5000820;28;101304;-70
2022/11/25 12:44:30;;;;;;;17.10;3.97;;;;;;;;;;5009078;28;99807;-70
2022/11/25 12:46:56;;;;;;;17.98;4.05;;;;;;;;;;5001456;28;99925;-71
2022/11/25 12:49:31;;;;;;;20.52;3.97;;;;;;;;;;5006818;28;99187;-71
2022/11/25 12:52:09;;;;;;;22.00;4.38;;;;;;;;;;5007949;28;98318;-71
2022/11/25 12:54:47;;;;;;;14.52;2.92;;;;;;;;;;5007510;28;99443;-70
2022/11/25 12:57:14;;;;;;;11.48;2.88;;;;;;;;;;5005334;28;100037;-71
2022/11/25 12:59:59;;;;;;;19.17;3.78;;;;;;;;;;5000004;28;100355;-71
2022/11/25 13:02:55;;;;;;;11.05;3.00;;;;;;;;;;5003513;28;100106;-71
2022/11/25 13:05:40;;;;;;;17.52;3.40;;;;;;;;;;5008476;28;100060;-71
2022/11/25 13:08:17;;;;;;;15.55;3.83;;;;;;;;;;5006412;28;98875;-70
2022/11/25 13:10:55;;;;;;;17.15;3.40;;;;;;;;;;5005968;28;99156;-70
2022/11/25 13:13:42;;;;;;;21.73;4.00;;;;;;;;;;5004640;28;98296;-71
2022/11/25 13:16:09;;;;;;;20.55;3.88;;;;;;;;;;5006038;28;98754;-70
2022/11/25 13:18:38;;;;;;;15.68;3.10;;;;;;;;;;5006376;28;99923;-70
2022/11/25 13:21:12;;;;;;;20.27;2.72;;;;;;;;;;5001366;28;98313;-70
2022/11/25 13:23:52;;;;;;;17.65;3.08;;;;;;;;;;5005178;28;100479;-70
2022/11/25 13:26:27;;;;;;;14.68;3.35;;;;;;;;;;5005972;28;99862;-70
2022/11/25 13:28:54;;;;;;;17.73;3.97;;;;;;;;;;5010569;28;98565;-71
2022/11/25 13:31:20;;;;;;;13.07;2.85;;;;;;;;;;5004708;28;100760;-71
2022/11/25 13:33:47;;;;;;;17.92;3.40;;;;;;;;;;5003636;28;98299;-70
2022/11/25 13:36:17;;;;;;;14.75;3.47;;;;;;;;;;5007081;28;99934;-69
2022/11/25 13:38:50;;;;;;;21.05;3.72;;;;;;;;;;5001089;28;100455;-70
2022/11/25 13:41:19;;;;;;;13.75;3.05;;;;;;;;;;4998415;28;98350;-69
2022/11/25 13:43:52;;;;;;;13.60;3.17;;;;;;;;;;5005323;28;99484;-71
2022/11/25 13:46:38;;;;;;;17.35;3.72;;;;;;;;;;5001395;28;100046;-70
2022/11/25 13:49:19;;;;;;;21.55;3.67;;;;;;;;;;5006169;28;98349;-70
2022/11/25 13:52:04;;;;;;;21.55;4.38;;;;;;;;;;5008086;28;99448;-70
2022/11/25 13:54:39;;;;;;;18.52;3.15;;;;;;;;;;4994617;28;98389;-70
2022/11/25 13:57:08;;;;;;;18.05;4.18;;;;;;;;;;5004984;28;99533;-70
2022/11/25 13:59:36;;;;;;;16.42;3.15;;;;;;;;;;4994480;28;100637;-71
2022/11/25 14:02:21;;;;;;;14.43;3.63;;;;;;;;;;4996223;28;98373;-69
2022/11/25 14:05:06;;;;;;;22.35;3.97;;;;;;;;;;4998619;28;99367;-71
2022/11/25 14:07:38;;;;;;;18.38;4.03;;;;;;;;;;5000370;28;100354;-71
2022/11/25 14:10:20;;;;;;;16.48;3.08;;;;;;;;;;4991829;28;98271;-71
2022/11/25 14:12:46;;;;;;;16.25;3.42;;;;;;;;;;4999477;28;99657;-71
2022/11/25 14:15:34;;;;;;;10.55;2.92;;;;;;;;;;5008515;28;99893;-71
2022/11/25 14:18:13;;;;;;;19.13;3.55;;;;;;;;;;5006306;28;99526;-70
2022/11/25 14:20:54;;;;;;;17.20;3.75;;;;;;;;;;5000753;28;100703;-70
2022/11/25 14:23:47;;;;;;;25.35;3.97;;;;;;;;;;5000236;28;98252;-70
2022/11/25 14:26:22;;;;;;;21.13;4.18;;;;;;;;;;4999917;28;99938;-69
2022/11/25 14:29:14;;;;;;;22.42;3.88;;;;;;;;;;5006667;28;99824;-70
2022/11/25 14:31:43;;;;;;;24.88;4.72;;;;;;;;;;5005569;28;98376;-69
2022/11/25 14:34:16;;;;;;;20.77;3.80;;;;;;;;;;5004366;28;100085;-69
2022/11/25 14:36:51;;;;;;;26.00;4.38;;;;;;;;;;5003581;28;100014;-71
2022/11/25 14:39:24;;;;;;;29.02;5.13;;;;;;;;;;5013327;28;98102;-71
2022/11/25 14:41:51;;;;;;;16.92;3.80;;;;;;;;;;5006774;28;99927;-70
2022/11/25 14:44:21;;;;;;;19.15;3.75;;;;;;;;;;5005979;28;100570;-69
2022/11/25 14:46:52;;;;;;;26.08;3.33;;;;;;;;;;5008640;28;99308;-69
2022/11/25 14:49:18;;;;;;;19.25;3.70;;;;;;;;;;4994650;28;102950;-69
2022/11/25 14:52:06;;;;;;;20.33;4.03;;;;;;;;;;4974999;28;98162;-71
2022/11/25 14:54:38;;;;;;;19.92;4.00;;;;;;;;;;5007133;28;101309;-69
2022/11/25 14:57:05;;;;;;;27.07;4.17;;;;;;;;;;5004048;28;99303;-69
2022/11/25 14:59:33;;;;;;;32.55;4.40;;;;;;;;;;5006358;28;98450;-69
2022/11/25 15:02:00;;;;;;;22.17;3.78;;;;;;;;;;5004920;28;98893;-70
2022/11/25 15:04:30;;;;;;;22.45;4.55;;;;;;;;;;5006813;28;98614;-69
2022/11/25 15:06:59;;;;;;;16.48;4.30;;;;;;;;;;5006327;28;98679;-69